Flight Track Log - Related Links

Times and Time Zones

All times are in EDT time to prevent confusion due to time zone crossing. See the N45NS flight status page for this flight to view local times or setup timezone preferences in your user account.

Time Position Orientation Groundspeed Altitude Reporting Facility
EDT Latitude Longitude Course Direction KTS MPH feet Rate Location/Type
Wed 02:43:11 PM 42.1411 -87.9342 253° West 171 197 2,400  Level Chicago Center
Wed 02:44:13 PM 42.1506 -88.0189 279° West 240 276 3,000 1,645 Climbing Chicago Center
Wed 02:45:15 PM 42.1414 -88.1192 263° West 253 291 5,800 3,659 Climbing Chicago Center
Wed 02:46:16 PM 42.1331 -88.2156 263° West 259 298 10,500 4,537 Climbing Chicago Center
Wed 02:47:18 PM 42.1250 -88.3253 264° West 273 314 15,100 3,774 Climbing Chicago Center
Wed 02:48:00 PM 41.9678 -88.5396 253° West  Level FlightAware Approximate
Wed 02:48:20 PM 42.1142 -88.4175 261° West 289 333 18,300  Level Chicago Center
Wed 02:49:22 PM 42.0997 -88.5519 262° West 301 346 22,200 3,387 Climbing Chicago Center
Wed 02:50:24 PM 42.0861 -88.6678 261° West 310 357 25,300 3,000 Climbing Chicago Center
Wed 02:51:26 PM 42.0914 -88.7797 274° West 302 348 28,400 2,806 Climbing Chicago Center
Wed 02:52:28 PM 42.0917 -88.9011 270° West 289 333 31,100 1,742 Climbing Chicago Center
Wed 02:53:30 PM 42.0806 -89.0078 262° West 287 330 32,000 435 Climbing Chicago Center
Wed 02:54:32 PM 42.0708 -89.1336 264° West 320 368 32,000  Level Chicago Center
Wed 02:55:33 PM 42.0569 -89.2872 263° West 380 437 32,000 195 Level Chicago Center
Wed 02:56:35 PM 42.0439 -89.4325 263° West 392 451 32,400 1,113 Climbing Chicago Center
Wed 02:57:37 PM 42.0344 -89.5661 265° West 371 427 34,300 1,597 Climbing Chicago Center
Wed 02:58:39 PM 42.0228 -89.6917 263° West 347 399 35,700 1,152 Climbing Chicago Center
Wed 02:59:42 PM 42.0125 -89.8111 263° West 330 380 36,700 960 Climbing Chicago Center
Wed 03:00:44 PM 42.0011 -89.9375 263° West 324 373 37,700 829 Climbing Chicago Center
Wed 03:01:45 PM 41.9914 -90.0536 264° West 317 365 38,400 732 Climbing Chicago Center
Wed 03:02:47 PM 41.9789 -90.1908 263° West 310 357 39,200 774 Climbing Chicago Center
Wed 03:03:49 PM 41.9683 -90.3050 263° West 309 356 40,000 387 Climbing Chicago Center
Wed 03:04:51 PM 41.9581 -90.4186 263° West 308 354 40,000  Level Chicago Center
Wed 03:05:53 PM 41.9464 -90.5381 263° West 321 369 40,000  Level Chicago Center
Wed 03:06:55 PM 41.9319 -90.6669 261° West 348 400 40,000  Level Chicago Center
Wed 03:07:56 PM 41.9203 -90.7939 263° West 346 398 40,000  Level Chicago Center
Wed 03:08:58 PM 41.9050 -90.9497 263° West 351 404 40,000  Level Chicago Center
Wed 03:10:00 PM 41.8917 -91.0808 262° West 356 410 40,000  Level Chicago Center
Wed 03:11:02 PM 41.8786 -91.2136 263° West 359 413 40,000  Level Chicago Center
Wed 03:12:04 PM 41.8642 -91.3467 262° West 361 415 40,000  Level Chicago Center
Wed 03:13:05 PM 41.8508 -91.4786 262° West 359 413 40,000  Level Chicago Center
Wed 03:14:07 PM 41.8367 -91.6119 262° West 361 415 40,000  Level Chicago Center
Wed 03:15:09 PM 41.8222 -91.7453 262° West 363 418 40,000  Level Chicago Center
Wed 03:16:10 PM 41.8056 -91.9056 262° West 363 418 40,000  Level Chicago Center
Wed 03:17:12 PM 41.7911 -92.0383 262° West 364 419 40,000  Level Chicago Center
Wed 03:18:14 PM 41.7764 -92.1708 262° West 361 415 40,000  Level Chicago Center
Wed 03:19:16 PM 41.7594 -92.3000 260° West 357 411 40,000  Level Chicago Center
Wed 03:20:18 PM 41.7450 -92.4333 262° West 360 414 40,000  Level Chicago Center
Wed 03:21:19 PM 41.7308 -92.5675 262° West 363 418 40,000 -49 Level Chicago Center
Wed 03:22:21 PM 41.7128 -92.7283 261° West 365 420 39,900  Descending Chicago Center
Wed 03:23:23 PM 41.6992 -92.8450 261° West 364 419 40,000 48 Climbing Chicago Center
Wed 03:24:25 PM 41.6806 -93.0050 261° West 363 418 40,000  Level Chicago Center
Wed 03:25:27 PM 41.6650 -93.1375 261° West 365 420 40,000  Level Chicago Center
Wed 03:26:28 PM 41.6489 -93.2692 261° West 362 417 40,000  Level Chicago Center
Wed 03:27:30 PM 41.6322 -93.3992 260° West 359 413 40,000  Level Chicago Center
Wed 03:28:32 PM 41.6178 -93.5283 262° West 355 409 40,000  Level Chicago Center
Wed 03:29:34 PM 41.6014 -93.6578 260° West 357 411 40,000  Level Chicago Center
Wed 03:30:36 PM 41.5822 -93.8125 261° West 356 410 40,000  Level Chicago Center
Wed 03:31:38 PM 41.5664 -93.9419 261° West 356 410 40,000  Level Chicago Center
Wed 03:32:39 PM 41.5494 -94.0711 260° West 355 409 40,000  Level Chicago Center
Wed 03:33:41 PM 41.5319 -94.2011 260° West 357 411 40,000  Level Chicago Center
Wed 03:34:43 PM 41.5147 -94.3319 260° West 360 414 40,000  Level Chicago Center
Wed 03:35:45 PM 41.4950 -94.4892 261° West 361 415 40,000  Level Chicago Center
Wed 03:36:57 PM 41.4739 -94.6408 260° West 359 413 40,000  Level Minneapolis Center
Wed 03:37:59 PM 41.4575 -94.7717 261° West 359 413 40,000  Level Minneapolis Center
Wed 03:39:00 PM 41.4406 -94.9039 260° West 359 413 40,000  Level Minneapolis Center
Wed 03:40:02 PM 41.4214 -95.0358 259° West 362 417 40,000  Level Minneapolis Center
Wed 03:41:04 PM 41.4039 -95.1672 260° West 362 417 40,000  Level Minneapolis Center
Wed 03:42:05 PM 41.3853 -95.2992 259° West 362 417 40,000  Level Minneapolis Center
Wed 03:43:07 PM 41.3625 -95.4575 259° West 362 417 40,000  Level Minneapolis Center
Wed 03:44:08 PM 41.3442 -95.5897 260° West 362 417 40,000  Level Minneapolis Center
Wed 03:45:10 PM 41.3264 -95.7189 260° West 362 417 40,000  Level Minneapolis Center
Wed 03:46:12 PM 41.3083 -95.8506 260° West 361 415 40,000  Level Minneapolis Center
Wed 03:47:13 PM 41.2889 -95.9800 259° West 360 414 40,000  Level Minneapolis Center
Wed 03:48:15 PM 41.2697 -96.1106 259° West 360 414 40,000  Level Minneapolis Center
Wed 03:49:16 PM 41.2500 -96.2419 259° West 360 414 40,000  Level Minneapolis Center
Wed 03:50:18 PM 41.2300 -96.3836 259° West 360 414 40,000  Level Minneapolis Center
Wed 03:51:20 PM 41.2106 -96.5142 259° West 360 414 40,000  Level Minneapolis Center
Wed 03:52:21 PM 41.1897 -96.6442 258° West 360 414 40,000  Level Minneapolis Center
Wed 03:53:23 PM 41.1703 -96.7739 259° West 360 414 40,000  Level Minneapolis Center
Wed 03:54:24 PM 41.1500 -96.9039 258° West 360 414 40,000  Level Minneapolis Center
Wed 03:55:26 PM 41.1261 -97.0603 259° West 360 414 40,000  Level Minneapolis Center
Wed 03:56:28 PM 41.1053 -97.1908 258° West 360 414 40,000  Level Minneapolis Center
Wed 03:57:29 PM 41.0850 -97.3217 258° West 360 414 40,000  Level Minneapolis Center
Wed 03:58:31 PM 41.0667 -97.4417 259° West 360 414 40,000  Level Minneapolis Center
Wed 03:59:32 PM 41.0406 -97.6008 258° West 363 418 40,000  Level Minneapolis Center
Wed 04:00:34 PM 41.0189 -97.7331 258° West 363 418 40,000  Level Minneapolis Center
Wed 04:01:36 PM 40.9975 -97.8675 258° West 366 421 40,000  Level Minneapolis Center
Wed 04:02:37 PM 40.9747 -98.0011 257° West 369 425 40,000  Level Minneapolis Center
Wed 04:03:39 PM 40.9536 -98.1347 258° West 369 425 40,000  Level Minneapolis Center
Wed 04:04:41 PM 40.9308 -98.2697 257° West 370 426 40,000  Level Minneapolis Center
Wed 04:05:42 PM 40.9083 -98.4044 258° West 371 427 40,000  Level Minneapolis Center
Wed 04:06:44 PM 40.8844 -98.5458 257° West 371 427 40,000  Level Minneapolis Center
Wed 04:07:46 PM 40.8614 -98.6800 257° West 371 427 40,000  Level Minneapolis Center
Wed 04:08:47 PM 40.8392 -98.8150 258° West 372 428 40,000  Level Minneapolis Center
Wed 04:09:49 PM 40.8147 -98.9486 256° West 372 428 40,000  Level Minneapolis Center
Wed 04:10:51 PM 40.7911 -99.0822 257° West 372 428 40,000  Level Minneapolis Center
Wed 04:11:52 PM 40.7633 -99.2450 257° West 373 429 40,000  Level Minneapolis Center
Wed 04:12:54 PM 40.7406 -99.3792 257° West 373 429 40,000  Level Minneapolis Center
Wed 04:13:56 PM 40.7167 -99.5119 257° West 373 429 40,000  Level Minneapolis Center
Wed 04:14:57 PM 40.6917 -99.6464 256° West 373 429 40,000  Level Minneapolis Center
Wed 04:15:59 PM 40.6683 -99.7817 257° West 374 430 40,000  Level Minneapolis Center
Wed 04:17:01 PM 40.6439 -99.9153 256° West 375 432 40,000  Level Minneapolis Center
Wed 04:18:03 PM 40.6192 -100.0489 256° West 375 432 40,000  Level Minneapolis Center
Wed 04:19:04 PM 40.5947 -100.1831 257° West 375 432 40,000  Level Minneapolis Center
Wed 04:20:06 PM 40.5656 -100.3428 257° West 375 432 40,000  Level Minneapolis Center
Wed 04:21:08 PM 40.5403 -100.4764 256° West 375 432 40,000  Level Minneapolis Center
Wed 04:22:10 PM 40.5136 -100.6089 255° West 375 432 40,000  Level Minneapolis Center
Wed 04:23:30 PM 40.4794 -100.7903 256° West 376 433 40,000  Level Denver Center
Wed 04:24:33 PM 40.4542 -100.9183 255° West 377 434 40,000  Level Denver Center
Wed 04:25:33 PM 40.4367 -101.0717 262° West 377 434 40,000  Level Denver Center
Wed 04:26:37 PM 40.4197 -101.2019 260° West 377 434 40,000  Level Denver Center
Wed 04:27:37 PM 40.4033 -101.3331 261° West 377 434 40,000  Level Denver Center
Wed 04:28:41 PM 40.3831 -101.4850 260° West 377 434 40,000  Level Denver Center
Wed 04:29:41 PM 40.3672 -101.6156 261° West 378 435 40,000  Level Denver Center
Wed 04:30:44 PM 40.3467 -101.7675 260° West 378 435 40,000  Level Denver Center
Wed 04:31:45 PM 40.3306 -101.9000 261° West 381 438 40,000  Level Denver Center
Wed 04:32:47 PM 40.3100 -102.0517 260° West 381 438 40,000  Level Denver Center
Wed 04:33:48 PM 40.2919 -102.1825 260° West 381 438 40,000  Level Denver Center
Wed 04:34:51 PM 40.2744 -102.3139 260° West 381 438 40,000  Level Denver Center
Wed 04:35:53 PM 40.2542 -102.4650 260° West 381 438 40,000  Level Denver Center
Wed 04:36:53 PM 40.2372 -102.5950 260° West 381 438 40,000  Level Denver Center
Wed 04:37:54 PM 40.2175 -102.7353 260° West 378 435 40,000  Level Denver Center
Wed 04:38:58 PM 40.1981 -102.8700 259° West 378 435 40,000  Level Denver Center
Wed 04:40:00 PM 40.1800 -103.0036 260° West 378 435 40,000  Level Denver Center
Wed 04:41:01 PM 40.1569 -103.1653 259° West 377 434 40,000  Level Denver Center
Wed 04:42:04 PM 40.1467 -103.3011 264° West 377 434 40,000  Level Denver Center
Wed 04:43:04 PM 40.1372 -103.4369 265° West 377 434 40,000 -242 Level Denver Center
Wed 04:44:08 PM 40.1275 -103.5742 265° West 378 435 39,500 -1,016 Descending Denver Center
Wed 04:45:08 PM 40.1175 -103.7094 265° West 378 435 37,900 -1,548 Descending Denver Center
Wed 04:46:12 PM 40.1072 -103.8444 264° West 378 435 36,300 -1,548 Descending Denver Center
Wed 04:47:12 PM 40.0961 -103.9869 264° West 387 445 34,700 -1,756 Descending Denver Center
Wed 04:48:15 PM 40.0825 -104.1661 264° West 411 473 32,700 -1,728 Descending Denver Center
Wed 04:49:17 PM 40.0708 -104.3217 264° West 427 491 31,100 -1,561 Descending Denver Center
Wed 04:50:18 PM 40.0575 -104.4797 264° West 436 502 29,500 -1,475 Descending Denver Center
Wed 04:51:19 PM 40.0458 -104.6350 264° West 436 502 28,100 -726 Descending Denver Center
Wed 04:52:22 PM 40.0333 -104.7883 264° West 433 498 28,000 -528 Descending Denver Center
Wed 04:53:24 PM 40.0331 -104.9767 270° West 436 502 27,000 -488 Descending Denver Center
Wed 04:54:25 PM 40.0300 -105.1333 269° West 436 502 27,000 -581 Level Denver Center
Wed 04:55:28 PM 40.0275 -105.2928 269° West 442 509 25,800 -1,306 Descending Denver Center
Wed 04:56:29 PM 40.0242 -105.4414 268° West 418 481 24,300 -878 Descending Denver Center
Wed 04:57:31 PM 40.0197 -105.5958 268° West 423 487 24,000 -293 Descending Denver Center
Wed 04:58:32 PM 39.9669 -105.7656 248° West 421 484 23,700 -1,104 Descending Denver Center
Wed 04:59:36 PM 39.9228 -105.9083 248° West 425 489 21,700 -1,935 Descending Denver Center
Wed 05:00:36 PM 39.8822 -106.0425 249° West 402 463 19,700 -1,887 Descending Denver Center
Wed 05:01:40 PM 39.8436 -106.1694 248° West 385 443 17,800 -1,694 Descending Denver Center
Wed 05:02:40 PM 39.8022 -106.3081 249° West 381 438 16,200 -871 Descending Denver Center
Wed 05:03:44 PM 39.7639 -106.4319 248° West 377 434 16,000 -905 Descending Denver Center
Wed 05:04:46 PM 39.7278 -106.5492 248° West 357 411 14,300 -2,000 Descending Denver Center
Wed 05:05:47 PM 39.6969 -106.6475 248° West 322 371 11,900 -2,226 Descending Denver Center
Wed 05:06:50 PM 39.6650 -106.7533 249° West 266 306 9,700 -1,742 Descending Denver Center
Wed 05:07:51 PM 39.6533 -106.8183 257° West 197 227 8,300 -1,258 Descending Denver Center
Wed 05:08:54 PM 39.6472 -106.8739 262° West 173 199 7,100 -1,143 Descending Denver Center

Login

Don't have an account? Register now (free) for customized features, flight alerts, and more!